createdAt,value
2022-08-28T00:00:52.739Z,99797.56
2022-08-28T00:01:55.126Z,99792.28
2022-08-28T00:02:57.312Z,99800.22
2022-08-28T00:04:00.386Z,99788.03
2022-08-28T00:05:02.155Z,99791.66
2022-08-28T00:06:04.144Z,99790.06
2022-08-28T00:07:06.000Z,99786.91
2022-08-28T00:08:10.702Z,99796.41
2022-08-28T00:09:12.536Z,99792.06
2022-08-28T00:10:16.788Z,99797.34
2022-08-28T00:11:19.620Z,99797.25
2022-08-28T00:12:21.687Z,99796.28
2022-08-28T00:13:25.480Z,99798.00
2022-08-28T00:14:27.270Z,99792.19
2022-08-28T00:15:32.531Z,99801.38
2022-08-28T00:16:34.484Z,99799.59
2022-08-28T00:17:36.514Z,99802.00
2022-08-28T00:18:39.434Z,99806.47
2022-08-28T00:19:41.167Z,99810.03
2022-08-28T00:20:43.307Z,99803.81
2022-08-28T00:21:45.653Z,99800.00
2022-08-28T00:22:48.654Z,99794.06
2022-08-28T00:23:50.400Z,99807.94
2022-08-28T00:24:52.010Z,99802.75
2022-08-28T00:25:57.225Z,99794.06
2022-08-28T00:27:17.477Z,99801.91
2022-08-28T00:28:23.735Z,99795.88
2022-08-28T00:29:26.124Z,99797.88
2022-08-28T00:30:40.362Z,99791.13
2022-08-28T00:31:41.904Z,99791.44
2022-08-28T00:32:43.451Z,99790.91
2022-08-28T00:33:46.126Z,99791.94
2022-08-28T00:34:51.832Z,99795.66
2022-08-28T00:35:54.972Z,99794.81
2022-08-28T00:36:56.808Z,99789.94
2022-08-28T00:37:58.538Z,99793.25
2022-08-28T00:39:00.773Z,99789.00
2022-08-28T00:40:02.615Z,99795.34
2022-08-28T00:41:05.384Z,99792.59
2022-08-28T00:42:07.038Z,99794.28
2022-08-28T00:43:09.818Z,99785.63
2022-08-28T00:44:13.700Z,99793.97
2022-08-28T00:45:18.125Z,99791.34
2022-08-28T00:46:22.905Z,99791.34
2022-08-28T00:47:26.455Z,99794.91
2022-08-28T00:48:28.416Z,99790.69
2022-08-28T00:49:33.691Z,99795.09
2022-08-28T00:50:54.558Z,99789.94
2022-08-28T00:52:05.811Z,99785.72
2022-08-28T00:53:07.387Z,99792.78
2022-08-28T00:54:09.801Z,99794.59
2022-08-28T00:55:15.784Z,99788.59
2022-08-28T00:56:19.041Z,99779.16
2022-08-28T00:57:49.299Z,99795.97
2022-08-28T00:58:52.503Z,99797.84
2022-08-28T00:59:54.316Z,99801.44
2022-08-28T01:00:56.040Z,99796.16
2022-08-28T01:01:58.994Z,99801.44
2022-08-28T01:03:05.103Z,99800.69
2022-08-28T01:04:07.799Z,99794.00
2022-08-28T01:05:09.983Z,99797.41
2022-08-28T01:06:14.571Z,99796.47
2022-08-28T01:07:17.194Z,99783.66
2022-08-28T01:08:18.929Z,99800.69
2022-08-28T01:09:22.069Z,99791.91
2022-08-28T01:10:25.893Z,99798.91
2022-08-28T01:11:29.332Z,99796.34
2022-08-28T01:12:33.276Z,99794.69
2022-08-28T01:13:36.726Z,99785.78
2022-08-28T01:14:41.555Z,99790.13
2022-08-28T01:15:43.468Z,99792.78
2022-08-28T01:16:46.206Z,99792.78
2022-08-28T01:17:51.905Z,99792.19
2022-08-28T01:18:57.744Z,99797.31
2022-08-28T01:20:09.176Z,99797.41
2022-08-28T01:21:20.515Z,99794.75
2022-08-28T01:22:38.914Z,99794.75
2022-08-28T01:23:58.070Z,99802.69
2022-08-28T01:25:03.308Z,99791.34
2022-08-28T01:26:05.448Z,99798.25
2022-08-28T01:27:12.883Z,99799.09
2022-08-28T01:28:15.470Z,99792.13
2022-08-28T01:29:17.706Z,99787.69
2022-08-28T01:30:21.596Z,99796.63
2022-08-28T01:31:23.254Z,99796.75
2022-08-28T01:32:32.091Z,99793.38
2022-08-28T01:33:33.894Z,99794.22
2022-08-28T01:34:35.765Z,99796.94
2022-08-28T01:35:42.499Z,99798.75
2022-08-28T01:36:44.327Z,99792.81
2022-08-28T01:37:47.298Z,99786.06
2022-08-28T01:38:55.537Z,99792.69
2022-08-28T01:39:57.437Z,99791.88
2022-08-28T01:40:59.378Z,99794.53
2022-08-28T01:42:02.494Z,99790.19
2022-08-28T01:43:17.030Z,99799.81
2022-08-28T01:44:24.359Z,99802.44
2022-08-28T01:45:26.270Z,99794.09
2022-08-28T01:46:31.636Z,99784.41
2022-08-28T01:47:33.431Z,99797.09
2022-08-28T01:48:38.526Z,99799.72
2022-08-28T01:49:40.342Z,99796.16
2022-08-28T01:50:43.075Z,99808.44
2022-08-28T01:51:44.951Z,99802.19
2022-08-28T01:52:46.510Z,99793.72
2022-08-28T01:53:48.200Z,99805.88
2022-08-28T01:54:50.235Z,99806.72
2022-08-28T01:55:56.012Z,99810.94
2022-08-28T01:56:58.007Z,99804.06
2022-08-28T01:57:59.681Z,99797.94
2022-08-28T01:59:04.550Z,99804.19
2022-08-28T02:00:06.822Z,99804.38
2022-08-28T02:01:18.402Z,99786.69
2022-08-28T02:02:21.322Z,99805.59
2022-08-28T02:03:23.597Z,99810.25
2022-08-28T02:04:27.561Z,99778.75
2022-08-28T02:05:34.349Z,99791.63
2022-08-28T02:06:36.537Z,99773.13
2022-08-28T02:07:38.444Z,99781.59
2022-08-28T02:08:40.391Z,99799.44
2022-08-28T02:09:41.933Z,99809.88
2022-08-28T02:10:43.881Z,99767.50
2022-08-28T02:11:46.786Z,99792.56
2022-08-28T02:12:49.284Z,99787.28
2022-08-28T02:13:52.815Z,99808.63
2022-08-28T02:14:56.001Z,99807.13
2022-08-28T02:15:57.863Z,99802.59
2022-08-28T02:16:59.482Z,99808.72
2022-08-28T02:18:01.964Z,99804.41
2022-08-28T02:19:03.696Z,99790.00
2022-08-28T02:20:06.664Z,99804.47
2022-08-28T02:21:09.872Z,99810.63
2022-08-28T02:22:13.396Z,99805.34
2022-08-28T02:23:14.995Z,99780.91
2022-08-28T02:24:17.108Z,99809.00
2022-08-28T02:25:18.954Z,99808.28
2022-08-28T02:26:23.658Z,99810.34
2022-08-28T02:27:25.521Z,99810.06
2022-08-28T02:28:27.182Z,99811.03
2022-08-28T02:29:28.811Z,99798.22
2022-08-28T02:30:30.301Z,99796.63
2022-08-28T02:31:32.492Z,99788.81
2022-08-28T02:32:34.071Z,99789.47
2022-08-28T02:33:38.390Z,99801.41
2022-08-28T02:34:42.068Z,99810.91
2022-08-28T02:35:43.779Z,99809.97
2022-08-28T02:36:45.322Z,99804.88
2022-08-28T02:37:47.859Z,99805.75
2022-08-28T02:38:55.353Z,99790.59
2022-08-28T02:39:59.828Z,99811.03
2022-08-28T02:41:01.357Z,99789.22
2022-08-28T02:42:06.636Z,99808.47
2022-08-28T02:43:08.472Z,99803.72
2022-08-28T02:44:10.099Z,99813.75
2022-08-28T02:45:13.809Z,99797.91
2022-08-28T02:46:16.558Z,99806.69
2022-08-28T02:47:18.753Z,99795.50
2022-08-28T02:48:20.391Z,99792.63
2022-08-28T02:49:23.850Z,99776.78
2022-08-28T02:50:25.343Z,99801.94
2022-08-28T02:51:30.890Z,99798.16
2022-08-28T02:52:32.374Z,99782.00
2022-08-28T02:53:35.068Z,99789.38
2022-08-28T02:54:39.668Z,99801.16
2022-08-28T02:55:41.739Z,99819.81
2022-08-28T02:56:43.351Z,99796.38
2022-08-28T02:57:45.623Z,99795.53
2022-08-28T02:58:47.740Z,99799.63
2022-08-28T02:59:49.252Z,99791.22
2022-08-28T03:00:51.176Z,99794.38
2022-08-28T03:01:52.900Z,99786.97
2022-08-28T03:02:54.988Z,99767.41
2022-08-28T03:03:56.560Z,99793.72
2022-08-28T03:05:00.420Z,99783.66
2022-08-28T03:06:02.755Z,99784.63
2022-08-28T03:07:07.309Z,99787.06
2022-08-28T03:08:08.898Z,99775.50
2022-08-28T03:09:10.478Z,99791.69
2022-08-28T03:10:12.352Z,99780.59
2022-08-28T03:11:13.899Z,99776.47
2022-08-28T03:12:16.963Z,99774.22
2022-08-28T03:13:26.424Z,99789.00
2022-08-28T03:14:29.032Z,99753.31
2022-08-28T03:15:30.646Z,99774.00
2022-08-28T03:16:32.645Z,99785.06
2022-08-28T03:17:36.523Z,99791.13
2022-08-28T03:18:38.136Z,99777.75
2022-08-28T03:19:39.946Z,99791.50
2022-08-28T03:20:42.356Z,99800.91
2022-08-28T03:21:44.124Z,99775.34
2022-08-28T03:23:04.284Z,99791.31
2022-08-28T03:24:05.862Z,99809.09
2022-08-28T03:25:07.752Z,99789.91
2022-08-28T03:26:15.636Z,99790.56
2022-08-28T03:27:17.216Z,99780.31
2022-08-28T03:28:18.917Z,99768.84
2022-08-28T03:29:20.670Z,99785.78
2022-08-28T03:30:23.392Z,99795.91
2022-08-28T03:31:27.475Z,99792.47
2022-08-28T03:32:29.526Z,99793.19
2022-08-28T03:33:31.488Z,99790.88
2022-08-28T03:34:33.562Z,99793.50
2022-08-28T03:35:35.226Z,99792.66
2022-08-28T03:36:36.785Z,99797.19
2022-08-28T03:37:38.405Z,99793.78
2022-08-28T03:38:41.651Z,99785.50
2022-08-28T03:39:43.168Z,99795.69
2022-08-28T03:40:46.511Z,99791.34
2022-08-28T03:41:47.977Z,99800.09
2022-08-28T03:42:53.561Z,99802.81
2022-08-28T03:44:00.538Z,99799.56
2022-08-28T03:45:02.373Z,99753.13
2022-08-28T03:46:05.969Z,99810.97
2022-08-28T03:47:08.846Z,99803.91
2022-08-28T03:48:10.351Z,99806.44
2022-08-28T03:49:11.866Z,99802.00
2022-08-28T03:50:14.190Z,99802.81
2022-08-28T03:51:29.118Z,99811.50
2022-08-28T03:52:31.532Z,99799.25
2022-08-28T03:53:33.172Z,99813.38
2022-08-28T03:54:35.010Z,99797.66
2022-08-28T03:55:36.688Z,99806.16
2022-08-28T03:56:41.170Z,99801.00
2022-08-28T03:57:42.686Z,99802.41
2022-08-28T03:58:44.525Z,99797.50
2022-08-28T03:59:48.145Z,99784.06
2022-08-28T04:00:51.086Z,99782.28
2022-08-28T04:01:52.676Z,99806.94
2022-08-28T04:02:54.367Z,99803.34
2022-08-28T04:03:56.802Z,99807.69
2022-08-28T04:04:58.304Z,99783.78
2022-08-28T04:06:00.775Z,99802.19
2022-08-28T04:07:02.317Z,99788.47
2022-08-28T04:08:04.161Z,99794.94
2022-08-28T04:09:06.247Z,99796.84
2022-08-28T04:10:08.484Z,99774.00
2022-08-28T04:11:10.112Z,99774.19
2022-08-28T04:12:11.985Z,99806.13
2022-08-28T04:13:15.373Z,99822.81
2022-08-28T04:14:16.844Z,99802.38
2022-08-28T04:15:18.426Z,99790.72
2022-08-28T04:16:20.004Z,99759.28
2022-08-28T04:17:21.531Z,99805.75
2022-08-28T04:18:23.100Z,99775.28
2022-08-28T04:19:26.594Z,99809.13
2022-08-28T04:20:28.794Z,99783.44
2022-08-28T04:21:31.511Z,99810.81
2022-08-28T04:22:33.225Z,99797.09
2022-08-28T04:23:36.695Z,99802.81
2022-08-28T04:24:38.400Z,99802.06
2022-08-28T04:25:40.923Z,99803.63
2022-08-28T04:26:42.590Z,99811.34
2022-08-28T04:27:44.342Z,99805.22
2022-08-28T04:28:46.936Z,99798.75
2022-08-28T04:29:49.156Z,99810.72
2022-08-28T04:30:55.097Z,99800.47
2022-08-28T04:31:58.173Z,99809.88
2022-08-28T04:33:00.069Z,99809.22
2022-08-28T04:34:03.676Z,99815.88
2022-08-28T04:35:07.247Z,99817.59
2022-08-28T04:36:11.654Z,99795.38
2022-08-28T04:37:13.187Z,99805.53
2022-08-28T04:38:15.146Z,99812.94
2022-08-28T04:39:17.042Z,99813.06
2022-08-28T04:40:19.219Z,99823.09
2022-08-28T04:41:20.785Z,99786.41
2022-08-28T04:42:22.700Z,99802.38
2022-08-28T04:43:24.247Z,99821.84
2022-08-28T04:44:26.229Z,99811.50
2022-08-28T04:45:29.487Z,99807.19
2022-08-28T04:46:32.251Z,99815.53
2022-08-28T04:47:38.395Z,99824.06
2022-08-28T04:48:41.240Z,99833.50
2022-08-28T04:49:44.208Z,99797.97
2022-08-28T04:50:48.669Z,99799.88
2022-08-28T04:51:50.164Z,99825.66
2022-08-28T04:52:52.513Z,99816.94
2022-08-28T04:53:54.004Z,99824.66
2022-08-28T04:54:55.794Z,99818.22
2022-08-28T04:55:58.994Z,99821.63
2022-08-28T04:57:01.236Z,99825.00
2022-08-28T04:58:02.717Z,99824.91
2022-08-28T04:59:04.261Z,99820.56
2022-08-28T05:00:07.508Z,99823.84
2022-08-28T05:01:19.115Z,99820.56
2022-08-28T05:02:20.829Z,99822.47
2022-08-28T05:03:23.691Z,99804.63
2022-08-28T05:04:26.857Z,99817.81
2022-08-28T05:05:28.377Z,99821.13
2022-08-28T05:06:32.036Z,99824.38
2022-08-28T05:07:34.392Z,99815.41
2022-08-28T05:08:36.460Z,99828.84
2022-08-28T05:09:38.070Z,99827.03
2022-08-28T05:10:40.592Z,99811.50
2022-08-28T05:11:42.712Z,99830.94
2022-08-28T05:12:44.248Z,99812.22
2022-08-28T05:13:46.014Z,99788.63
2022-08-28T05:14:48.922Z,99819.09
2022-08-28T05:15:52.172Z,99830.22
2022-08-28T05:16:55.397Z,99838.13
2022-08-28T05:17:56.961Z,99813.81
2022-08-28T05:19:02.126Z,99823.22
2022-08-28T05:20:05.573Z,99822.38
2022-08-28T05:21:15.670Z,99829.06
2022-08-28T05:22:17.169Z,99832.53
2022-08-28T05:23:18.682Z,99833.16
2022-08-28T05:24:23.778Z,99825.44
2022-08-28T05:25:25.257Z,99836.00
2022-08-28T05:26:29.730Z,99832.53
2022-08-28T05:27:31.646Z,99838.03
2022-08-28T05:28:33.185Z,99842.50
2022-08-28T05:29:35.060Z,99823.78
2022-08-28T05:30:38.498Z,99795.31
2022-08-28T05:31:41.144Z,99836.78
2022-08-28T05:32:43.238Z,99841.94
2022-08-28T05:33:47.314Z,99839.50
2022-08-28T05:34:48.851Z,99836.66
2022-08-28T05:35:50.369Z,99859.59
2022-08-28T05:36:51.902Z,99834.25
2022-08-28T05:37:53.898Z,99818.72
2022-08-28T05:38:57.676Z,99832.03
2022-08-28T05:40:00.168Z,99836.16
2022-08-28T05:41:03.289Z,99827.59
2022-08-28T05:42:05.552Z,99817.44
2022-08-28T05:43:07.073Z,99821.56
2022-08-28T05:44:11.361Z,99842.69
2022-08-28T05:45:13.385Z,99839.94
2022-08-28T05:46:16.144Z,99841.44
2022-08-28T05:47:18.306Z,99833.59
2022-08-28T05:48:23.400Z,99832.47
2022-08-28T05:49:25.026Z,99831.38
2022-08-28T05:50:26.702Z,99825.91
2022-08-28T05:51:28.861Z,99837.72
2022-08-28T05:52:30.392Z,99836.56
2022-08-28T05:53:32.328Z,99825.03
2022-08-28T05:54:34.060Z,99844.63
2022-08-28T05:55:40.160Z,99825.97
2022-08-28T05:56:43.827Z,99830.66
2022-08-28T05:57:45.381Z,99845.13
2022-08-28T05:58:46.964Z,99841.97
2022-08-28T05:59:49.651Z,99816.16
2022-08-28T06:00:51.228Z,99842.78
2022-08-28T06:01:52.861Z,99846.78
2022-08-28T06:02:54.361Z,99840.41
2022-08-28T06:03:59.347Z,99844.41
2022-08-28T06:05:01.583Z,99846.22
2022-08-28T06:06:04.048Z,99839.13
2022-08-28T06:07:06.065Z,99830.13
2022-08-28T06:08:08.166Z,99846.78
2022-08-28T06:09:14.201Z,99843.38
2022-08-28T06:10:15.759Z,99807.59
2022-08-28T06:11:21.705Z,99837.44
2022-08-28T06:12:26.657Z,99847.28
2022-08-28T06:13:30.067Z,99850.69
2022-08-28T06:14:32.500Z,99844.22
2022-08-28T06:15:34.113Z,99846.44
2022-08-28T06:16:39.263Z,99847.56
2022-08-28T06:17:40.856Z,99842.13
2022-08-28T06:18:42.411Z,99832.03
2022-08-28T06:19:43.941Z,99820.94
2022-08-28T06:20:47.154Z,99854.63
2022-08-28T06:21:52.320Z,99821.56
2022-08-28T06:22:53.863Z,99846.91
2022-08-28T06:23:56.060Z,99843.03
2022-08-28T06:24:57.620Z,99823.94
2022-08-28T06:25:59.786Z,99853.84
2022-08-28T06:27:01.349Z,99852.91
2022-08-28T06:28:03.644Z,99839.78
2022-08-28T06:29:08.000Z,99853.41
2022-08-28T06:30:10.278Z,99857.53
2022-08-28T06:31:23.330Z,99863.44
2022-08-28T06:32:26.740Z,99858.53
2022-08-28T06:33:28.299Z,99841.53
2022-08-28T06:34:30.472Z,99863.25
2022-08-28T06:35:32.532Z,99854.44
2022-08-28T06:36:37.331Z,99870.00
2022-08-28T06:37:38.889Z,99866.88
2022-08-28T06:38:40.448Z,99862.31
2022-08-28T06:39:41.963Z,99861.75
2022-08-28T06:40:46.745Z,99850.63
2022-08-28T06:41:48.295Z,99865.13
2022-08-28T06:42:49.858Z,99872.75
2022-08-28T06:43:51.376Z,99861.28
2022-08-28T06:44:52.886Z,99867.44
2022-08-28T06:45:58.424Z,99875.03
2022-08-28T06:47:00.321Z,99857.41
2022-08-28T06:48:02.385Z,99847.88
2022-08-28T06:49:06.204Z,99871.84
2022-08-28T06:50:08.146Z,99844.56
2022-08-28T06:51:11.959Z,99879.16
2022-08-28T06:52:13.497Z,99866.44
2022-08-28T06:53:18.808Z,99876.63
2022-08-28T06:54:23.233Z,99879.88
2022-08-28T06:55:25.295Z,99887.13
2022-08-28T06:56:27.223Z,99879.97
2022-08-28T06:57:28.839Z,99891.38
2022-08-28T06:58:31.084Z,99879.19
2022-08-28T06:59:33.096Z,99868.84
2022-08-28T07:00:36.094Z,99882.28
2022-08-28T07:01:38.359Z,99883.28
2022-08-28T07:02:40.013Z,99874.94
2022-08-28T07:03:42.699Z,99882.63
2022-08-28T07:04:45.672Z,99880.28
2022-08-28T07:05:47.156Z,99890.06
2022-08-28T07:06:54.159Z,99896.22
2022-08-28T07:07:56.585Z,99882.03
2022-08-28T07:08:58.165Z,99895.97
2022-08-28T07:09:59.633Z,99880.59
2022-08-28T07:11:19.013Z,99900.13
2022-08-28T07:12:20.569Z,99876.75
2022-08-28T07:13:23.262Z,99901.59
2022-08-28T07:14:26.072Z,99897.34
2022-08-28T07:15:28.436Z,99892.81
2022-08-28T07:16:38.137Z,99895.84
2022-08-28T07:17:39.926Z,99886.09
2022-08-28T07:18:43.026Z,99880.97
2022-08-28T07:19:44.609Z,99904.16
2022-08-28T07:20:55.406Z,99916.66
2022-08-28T07:21:56.927Z,99890.50
2022-08-28T07:22:59.745Z,99908.94
2022-08-28T07:24:03.484Z,99887.72
2022-08-28T07:25:05.466Z,99896.91
2022-08-28T07:26:10.016Z,99906.31
2022-08-28T07:27:14.723Z,99903.41
2022-08-28T07:28:19.994Z,99880.16
2022-08-28T07:29:22.465Z,99900.53
2022-08-28T07:30:24.001Z,99900.41
2022-08-28T07:31:27.564Z,99897.38
2022-08-28T07:32:29.506Z,99898.56
2022-08-28T07:33:32.421Z,99905.66
2022-08-28T07:34:39.122Z,99905.56
2022-08-28T07:35:45.101Z,99904.19
2022-08-28T07:36:47.427Z,99920.03
2022-08-28T07:37:49.144Z,99910.09
2022-08-28T07:38:50.801Z,99904.47
2022-08-28T07:39:52.765Z,99913.09
2022-08-28T07:40:55.389Z,99909.44
2022-08-28T07:41:56.860Z,99908.19
2022-08-28T07:43:17.614Z,99913.34
2022-08-28T07:44:37.880Z,99898.41
2022-08-28T07:45:39.490Z,99908.66
2022-08-28T07:46:41.864Z,99904.75
2022-08-28T07:47:43.438Z,99906.22
2022-08-28T07:48:47.172Z,99905.00
2022-08-28T07:49:48.727Z,99895.16
2022-08-28T07:50:50.255Z,99877.75
2022-08-28T07:51:54.168Z,99902.16
2022-08-28T07:52:56.037Z,99906.81
2022-08-28T07:53:57.919Z,99918.88
2022-08-28T07:55:01.070Z,99915.44
2022-08-28T07:56:03.137Z,99915.69
2022-08-28T07:57:06.938Z,99914.44
2022-08-28T07:58:08.691Z,99894.47
2022-08-28T07:59:11.522Z,99916.78
2022-08-28T08:00:15.616Z,99900.44
2022-08-28T08:01:20.241Z,99922.19
2022-08-28T08:02:22.090Z,99895.75
2022-08-28T08:03:24.912Z,99927.09
2022-08-28T08:04:26.654Z,99923.41
2022-08-28T08:05:28.218Z,99927.66
2022-08-28T08:06:34.235Z,99916.31
2022-08-28T08:07:39.755Z,99930.16
2022-08-28T08:08:45.281Z,99927.88
2022-08-28T08:09:46.826Z,99916.03
2022-08-28T08:11:07.446Z,99900.75
2022-08-28T08:12:14.610Z,99925.06
2022-08-28T08:13:16.128Z,99931.31
2022-08-28T08:14:17.810Z,99915.28
2022-08-28T08:15:19.405Z,99917.66
2022-08-28T08:16:24.150Z,99901.06
2022-08-28T08:17:25.775Z,99921.72
2022-08-28T08:18:27.292Z,99938.06
2022-08-28T08:19:32.267Z,99910.38
2022-08-28T08:20:33.837Z,99918.59
2022-08-28T08:21:36.634Z,99930.56
2022-08-28T08:22:38.188Z,99918.78
2022-08-28T08:23:41.552Z,99942.00
2022-08-28T08:24:43.157Z,99932.75
2022-08-28T08:25:55.691Z,99944.84
2022-08-28T08:27:00.859Z,99949.94
2022-08-28T08:28:05.923Z,99943.16
2022-08-28T08:29:07.512Z,99950.41
2022-08-28T08:30:10.026Z,99981.44
2022-08-28T08:31:20.766Z,99948.31
2022-08-28T08:32:22.319Z,99954.66
2022-08-28T08:33:23.842Z,99955.13
2022-08-28T08:34:25.813Z,99946.03
2022-08-28T08:35:27.620Z,99952.81
2022-08-28T08:36:34.055Z,99929.66
2022-08-28T08:37:35.600Z,99951.81
2022-08-28T08:38:37.960Z,99957.56
2022-08-28T08:39:41.654Z,99921.50
2022-08-28T08:40:43.312Z,99949.97
2022-08-28T08:41:51.716Z,99952.97
2022-08-28T08:42:56.995Z,99957.38
2022-08-28T08:44:06.190Z,99952.38
2022-08-28T08:45:13.872Z,99961.66
2022-08-28T08:46:15.678Z,99958.75
2022-08-28T08:47:38.898Z,99964.41
2022-08-28T08:48:44.917Z,99975.34
2022-08-28T08:49:54.972Z,99966.50
2022-08-28T08:51:05.358Z,99970.91
2022-08-28T08:52:29.089Z,99968.03
2022-08-28T08:53:47.860Z,99877.06
2022-08-28T08:55:37.517Z,99969.41
2022-08-28T08:56:41.372Z,99969.38
2022-08-28T08:57:46.134Z,99974.09
2022-08-28T08:58:54.406Z,99960.97
2022-08-28T08:59:56.076Z,99960.63
2022-08-28T09:01:20.186Z,99951.53
2022-08-28T09:02:31.373Z,99974.72
2022-08-28T09:04:24.779Z,99972.88
2022-08-28T09:05:55.774Z,99975.91
2022-08-28T09:07:07.966Z,99982.94
2022-08-28T09:08:18.617Z,99957.13
2022-08-28T09:09:35.340Z,99974.13
2022-08-28T09:10:48.268Z,99974.13
2022-08-28T09:12:03.666Z,99979.44
2022-08-28T09:13:32.160Z,99980.16
2022-08-28T09:14:52.488Z,99978.19
2022-08-28T09:15:54.270Z,99962.41
2022-08-28T09:16:56.593Z,99947.16
2022-08-28T09:18:27.212Z,99973.66
2022-08-28T09:19:29.660Z,99973.88
2022-08-28T09:20:33.173Z,99972.56
2022-08-28T09:21:41.340Z,99974.34
2022-08-28T09:22:47.035Z,99972.41
2022-08-28T09:23:48.616Z,99975.09
2022-08-28T09:24:51.610Z,99969.50
2022-08-28T09:25:59.715Z,99922.69
2022-08-28T09:27:04.029Z,99983.00
2022-08-28T09:28:08.453Z,99984.53
2022-08-28T09:29:18.202Z,99991.88
2022-08-28T09:30:31.408Z,99993.25
2022-08-28T09:31:38.760Z,99977.88
2022-08-28T09:32:57.863Z,99990.41
2022-08-28T09:34:17.208Z,99984.38
2022-08-28T09:35:27.877Z,99961.78
2022-08-28T09:36:34.725Z,99984.09
2022-08-28T09:37:37.184Z,99948.09
2022-08-28T09:38:41.406Z,99890.38
2022-08-28T09:39:45.629Z,99944.94
2022-08-28T09:41:16.767Z,99957.88
2022-08-28T09:42:41.439Z,99975.19
2022-08-28T09:43:45.608Z,99990.22
2022-08-28T09:45:09.119Z,99979.66
2022-08-28T09:46:32.539Z,99982.53
2022-08-28T09:47:34.068Z,99983.91
2022-08-28T09:48:39.839Z,99981.91
2022-08-28T09:49:41.362Z,99986.22
2022-08-28T09:50:43.438Z,99985.25
2022-08-28T09:51:45.092Z,99980.56
2022-08-28T09:52:47.291Z,99956.34
2022-08-28T09:53:51.807Z,99983.78
2022-08-28T09:54:54.427Z,99978.47
2022-08-28T09:55:59.075Z,99981.16
2022-08-28T09:57:03.336Z,99966.13
2022-08-28T09:58:06.070Z,99975.50
2022-08-28T09:59:10.606Z,99978.56
2022-08-28T10:00:12.813Z,99979.50
2022-08-28T10:01:34.287Z,99983.25
2022-08-28T10:02:43.093Z,99974.91
2022-08-28T10:04:00.061Z,99974.06
2022-08-28T10:05:10.392Z,99959.59
2022-08-28T10:06:20.974Z,99971.41
2022-08-28T10:07:50.967Z,99979.78
2022-08-28T10:09:08.064Z,99978.72
2022-08-28T10:10:31.772Z,99973.63
2022-08-28T10:11:55.656Z,99960.53
2022-08-28T10:13:14.313Z,99970.72
2022-08-28T10:14:39.808Z,99986.16
2022-08-28T10:15:43.337Z,99977.25
2022-08-28T10:16:56.741Z,99981.56
2022-08-28T10:18:07.314Z,99973.97
2022-08-28T10:19:36.666Z,99950.34
2022-08-28T10:20:53.448Z,99984.78
2022-08-28T10:22:37.509Z,99975.41
2022-08-28T10:23:42.130Z,99972.94
2022-08-28T10:24:58.994Z,99985.09
2022-08-28T10:26:25.158Z,99986.97
2022-08-28T10:27:53.932Z,99944.56
2022-08-28T10:29:07.825Z,99978.28
2022-08-28T10:30:15.016Z,99982.94
2022-08-28T10:31:31.550Z,99982.81
2022-08-28T10:32:52.423Z,99978.78
2022-08-28T10:33:59.905Z,99975.97
2022-08-28T10:35:11.922Z,99977.88
2022-08-28T10:36:34.032Z,99976.41
2022-08-28T10:38:04.628Z,99983.16
2022-08-28T10:39:39.769Z,99977.06
2022-08-28T10:41:06.017Z,99973.31
2022-08-28T10:42:07.704Z,99950.00
2022-08-28T10:43:29.038Z,99974.81
2022-08-28T10:44:36.651Z,99969.56
2022-08-28T10:45:41.244Z,99961.72
2022-08-28T10:46:49.060Z,99965.50
2022-08-28T10:48:19.868Z,99970.00
2022-08-28T10:49:28.297Z,99964.13
2022-08-28T10:50:42.766Z,99964.03
2022-08-28T10:51:51.754Z,99969.53
2022-08-28T10:53:03.029Z,99968.94
2022-08-28T10:54:15.476Z,99959.13
2022-08-28T10:55:23.660Z,99965.91
2022-08-28T10:56:35.868Z,99962.56
2022-08-28T10:58:02.566Z,99964.88
2022-08-28T10:59:04.177Z,99934.88
2022-08-28T11:00:18.466Z,99973.28
2022-08-28T11:01:33.145Z,99953.06
2022-08-28T11:02:37.151Z,99963.72
2022-08-28T11:03:46.699Z,99967.09
2022-08-28T11:04:49.377Z,99968.31
2022-08-28T11:06:01.735Z,99964.53
2022-08-28T11:07:10.079Z,99961.47
2022-08-28T11:08:23.429Z,99955.38
2022-08-28T11:09:33.132Z,99951.66
2022-08-28T11:10:37.637Z,99962.31
2022-08-28T11:11:46.538Z,99966.22
2022-08-28T11:12:51.741Z,99967.91
2022-08-28T11:13:59.660Z,99964.66
2022-08-28T11:15:36.380Z,99960.41
2022-08-28T11:16:44.046Z,99961.75
2022-08-28T11:17:45.700Z,99951.00
2022-08-28T11:19:08.727Z,99961.78
2022-08-28T11:20:24.904Z,99963.81
2022-08-28T11:21:40.557Z,99960.16
2022-08-28T11:23:10.467Z,99951.00
2022-08-28T11:24:35.108Z,99923.88
2022-08-28T11:26:02.842Z,99959.22
2022-08-28T11:27:20.019Z,99961.31
2022-08-28T11:28:24.428Z,99960.38
2022-08-28T11:30:01.318Z,99952.16
2022-08-28T11:31:05.972Z,99963.00
2022-08-28T11:32:28.727Z,99956.09
2022-08-28T11:33:35.474Z,99953.69
2022-08-28T11:34:56.954Z,99959.22
2022-08-28T11:35:58.721Z,99943.78
2022-08-28T11:37:02.619Z,99944.31
2022-08-28T11:38:04.486Z,99944.47
2022-08-28T11:39:20.152Z,99953.84
2022-08-28T11:40:31.674Z,99955.34
2022-08-28T11:41:36.544Z,99949.25
2022-08-28T11:42:38.162Z,99935.13
2022-08-28T11:43:42.395Z,99943.38
2022-08-28T11:44:45.918Z,99955.75
2022-08-28T11:45:47.938Z,99961.72
2022-08-28T11:46:51.961Z,99931.47
2022-08-28T11:47:56.469Z,99947.59
2022-08-28T11:49:01.187Z,99910.56
2022-08-28T11:50:16.182Z,99951.03
2022-08-28T11:51:17.645Z,99950.09
2022-08-28T11:52:44.041Z,99949.84
2022-08-28T11:54:12.756Z,99956.03
2022-08-28T11:55:29.981Z,99954.13
2022-08-28T11:56:41.121Z,99958.47
2022-08-28T11:59:07.933Z,99957.53
2022-08-28T12:00:44.869Z,99952.97
2022-08-28T12:01:46.491Z,99953.19
2022-08-28T12:02:52.419Z,99953.88
2022-08-28T12:04:01.945Z,99960.63
2022-08-28T12:05:31.381Z,99937.50
2022-08-28T12:06:44.964Z,99956.28
2022-08-28T12:07:49.596Z,99916.66
2022-08-28T12:09:01.894Z,99927.31
2022-08-28T12:10:24.330Z,99958.59
2022-08-28T12:11:41.602Z,99953.13
2022-08-28T12:12:46.138Z,99950.50
2022-08-28T12:13:51.568Z,99950.75
2022-08-28T12:14:55.893Z,99946.75
2022-08-28T12:16:06.862Z,99949.81
2022-08-28T12:17:31.221Z,99935.75
2022-08-28T12:18:39.544Z,99949.47
2022-08-28T12:20:31.071Z,99944.34
2022-08-28T12:21:38.933Z,99953.81
2022-08-28T12:22:53.194Z,99943.13
2022-08-28T12:24:21.859Z,99941.03
2022-08-28T12:25:32.149Z,99945.84
2022-08-28T12:26:38.556Z,99926.47
2022-08-28T12:27:41.105Z,99936.97
2022-08-28T12:28:51.432Z,99939.44
2022-08-28T12:29:55.325Z,99933.16
2022-08-28T12:31:06.234Z,99946.75
2022-08-28T12:32:22.721Z,99945.50
2022-08-28T12:33:37.667Z,99941.63
2022-08-28T12:34:39.375Z,99904.03
2022-08-28T12:35:43.732Z,99942.78
2022-08-28T12:36:48.977Z,99935.38
2022-08-28T12:37:53.793Z,99944.38
2022-08-28T12:39:00.380Z,99941.75
2022-08-28T12:40:11.848Z,99939.50
2022-08-28T12:41:17.120Z,99919.31
2022-08-28T12:42:26.697Z,99944.06
2022-08-28T12:43:46.570Z,99924.94
2022-08-28T12:44:48.643Z,99929.25
2022-08-28T12:46:19.787Z,99924.16
2022-08-28T12:47:23.622Z,99936.09
2022-08-28T12:48:47.382Z,99933.63
2022-08-28T12:49:49.078Z,99933.47
2022-08-28T12:51:04.582Z,99930.78
2022-08-28T12:52:10.793Z,99926.94
2022-08-28T12:53:18.433Z,99926.81
2022-08-28T12:54:19.996Z,99931.56
2022-08-28T12:55:24.605Z,99918.88
2022-08-28T12:56:33.975Z,99931.59
2022-08-28T12:57:35.515Z,99918.19
2022-08-28T12:58:39.835Z,99941.44